createdAt,value
2022-10-18T00:00:21.222Z,6.95
2022-10-18T00:02:50.113Z,7.07
2022-10-18T00:05:19.005Z,6.25
2022-10-18T00:07:47.801Z,6.18
2022-10-18T00:10:16.913Z,5.90
2022-10-18T00:15:15.407Z,7.05
2022-10-18T00:17:45.975Z,6.35
2022-10-18T00:20:15.332Z,6.57
2022-10-18T00:22:44.019Z,6.82
2022-10-18T00:25:13.051Z,5.75
2022-10-18T00:27:42.215Z,6.88
2022-10-18T00:30:11.813Z,7.10
2022-10-18T00:32:42.403Z,7.00
2022-10-18T00:38:27.224Z,5.90
2022-10-18T00:42:22.915Z,6.32
2022-10-18T00:45:06.147Z,6.65
2022-10-18T00:47:36.935Z,6.13
2022-10-18T00:50:07.947Z,7.07
2022-10-18T00:52:40.776Z,7.07
2022-10-18T00:55:11.871Z,6.57
2022-10-18T00:57:43.844Z,6.20
2022-10-18T01:00:13.962Z,6.38
2022-10-18T01:02:45.593Z,6.97
2022-10-18T01:05:15.638Z,6.85
2022-10-18T01:08:08.100Z,6.15
2022-10-18T01:10:46.757Z,5.95
2022-10-18T01:13:26.976Z,5.55
2022-10-18T01:16:01.785Z,6.85
2022-10-18T01:18:36.225Z,6.63
2022-10-18T01:21:26.871Z,6.35
2022-10-18T01:24:46.932Z,5.30
2022-10-18T01:27:36.934Z,6.28
2022-10-18T01:30:44.200Z,6.78
2022-10-18T01:33:24.641Z,6.22
2022-10-18T01:35:59.800Z,6.50
2022-10-18T01:38:31.207Z,6.20
2022-10-18T01:41:04.376Z,6.45
2022-10-18T01:43:35.557Z,6.80
2022-10-18T01:46:05.794Z,5.78
2022-10-18T01:48:38.111Z,6.70
2022-10-18T01:51:07.168Z,5.95
2022-10-18T01:53:36.509Z,6.05
2022-10-18T01:56:20.572Z,6.60
2022-10-18T01:59:02.425Z,5.32
2022-10-18T02:01:43.706Z,6.15
2022-10-18T02:04:21.618Z,5.72
2022-10-18T02:06:56.647Z,6.00
2022-10-18T02:09:35.175Z,6.38
2022-10-18T02:12:06.010Z,5.50
2022-10-18T02:14:36.221Z,6.35
2022-10-18T02:17:08.786Z,5.82
2022-10-18T02:19:43.119Z,5.55
2022-10-18T02:22:14.068Z,6.45
2022-10-18T02:24:47.762Z,5.07
2022-10-18T02:29:46.784Z,6.43
2022-10-18T02:32:21.287Z,5.93
2022-10-18T02:34:59.634Z,5.90
2022-10-18T02:37:32.077Z,6.25
2022-10-18T02:40:01.082Z,6.43
2022-10-18T02:42:35.919Z,5.97
2022-10-18T02:45:08.492Z,6.03
2022-10-18T02:47:37.789Z,5.47
2022-10-18T02:50:10.443Z,5.88
2022-10-18T02:52:39.735Z,5.45
2022-10-18T02:55:09.873Z,5.18
2022-10-18T02:57:39.009Z,5.57
2022-10-18T03:00:13.716Z,5.78
2022-10-18T03:02:42.565Z,5.95
2022-10-18T03:05:13.022Z,5.60
2022-10-18T03:07:41.952Z,5.75
2022-10-18T03:10:11.168Z,5.60
2022-10-18T03:12:39.860Z,6.07
2022-10-18T03:15:09.336Z,5.93
2022-10-18T03:17:38.135Z,5.57
2022-10-18T03:20:08.302Z,5.15
2022-10-18T03:22:38.750Z,5.22
2022-10-18T03:25:11.237Z,5.82
2022-10-18T03:27:44.107Z,5.65
2022-10-18T03:30:13.886Z,5.30
2022-10-18T03:32:42.728Z,5.07
2022-10-18T03:35:13.160Z,5.22
2022-10-18T03:37:43.624Z,5.68
2022-10-18T03:40:13.156Z,5.43
2022-10-18T03:42:50.544Z,5.72
2022-10-18T03:45:24.446Z,5.60
2022-10-18T03:47:55.215Z,5.32
2022-10-18T03:50:26.776Z,5.45
2022-10-18T03:52:57.415Z,5.10
2022-10-18T03:55:26.509Z,5.43
2022-10-18T03:57:55.494Z,5.65
2022-10-18T04:00:24.370Z,4.80
2022-10-18T04:02:55.121Z,5.50
2022-10-18T04:05:27.017Z,5.05
2022-10-18T04:07:57.341Z,5.38
2022-10-18T04:10:26.486Z,5.53
2022-10-18T04:12:55.359Z,6.10
2022-10-18T04:15:24.724Z,5.65
2022-10-18T04:17:53.899Z,5.82
2022-10-18T04:20:22.819Z,5.28
2022-10-18T04:22:55.052Z,5.05
2022-10-18T04:25:26.010Z,5.18
2022-10-18T04:27:54.765Z,6.00
2022-10-18T04:30:23.716Z,5.13
2022-10-18T04:32:52.426Z,5.13
2022-10-18T04:35:24.634Z,5.25
2022-10-18T04:37:53.436Z,5.43
2022-10-18T04:40:26.704Z,4.65
2022-10-18T04:42:55.892Z,4.63
2022-10-18T04:45:25.000Z,5.88
2022-10-18T04:47:54.204Z,5.68
2022-10-18T04:50:23.136Z,5.60
2022-10-18T04:52:54.132Z,5.72
2022-10-18T04:55:35.436Z,6.30
2022-10-18T04:58:05.729Z,5.43
2022-10-18T05:00:39.211Z,5.60
2022-10-18T05:03:23.843Z,5.97
2022-10-18T05:06:08.028Z,4.55
2022-10-18T05:08:38.693Z,4.68
2022-10-18T05:13:39.277Z,5.18
2022-10-18T05:16:08.874Z,5.50
2022-10-18T05:18:37.921Z,5.50
2022-10-18T05:21:07.225Z,5.60
2022-10-18T05:23:36.407Z,5.07
2022-10-18T05:26:07.087Z,5.40
2022-10-18T05:28:40.549Z,5.50
2022-10-18T05:31:12.736Z,5.45
2022-10-18T05:33:42.272Z,5.38
2022-10-18T05:36:12.059Z,5.47
2022-10-18T05:38:43.564Z,5.53
2022-10-18T05:41:13.927Z,5.40
2022-10-18T05:43:43.070Z,5.30
2022-10-18T05:46:15.408Z,5.50
2022-10-18T05:48:45.478Z,5.47
2022-10-18T05:51:14.409Z,5.55
2022-10-18T05:53:43.849Z,5.28
2022-10-18T05:56:12.977Z,5.90
2022-10-18T05:58:42.274Z,5.68
2022-10-18T06:01:12.231Z,6.20
2022-10-18T06:03:44.807Z,5.90
2022-10-18T06:06:15.159Z,6.00
2022-10-18T06:08:45.583Z,5.50
2022-10-18T06:11:17.039Z,5.60
2022-10-18T06:13:48.558Z,5.50
2022-10-18T06:16:19.450Z,5.80
2022-10-18T06:18:51.568Z,5.65
2022-10-18T06:21:32.145Z,5.65
2022-10-18T06:24:02.090Z,6.15
2022-10-18T06:26:31.341Z,5.88
2022-10-18T06:29:00.917Z,5.72
2022-10-18T06:31:30.806Z,5.80
2022-10-18T06:34:02.918Z,6.03
2022-10-18T06:36:32.683Z,5.68
2022-10-18T06:39:02.794Z,5.32
2022-10-18T06:41:33.804Z,5.28
2022-10-18T06:44:21.250Z,6.05
2022-10-18T06:46:54.047Z,5.95
2022-10-18T06:49:24.478Z,5.60
2022-10-18T06:51:55.530Z,5.72
2022-10-18T06:54:24.789Z,4.68
2022-10-18T06:56:57.383Z,5.75
2022-10-18T06:59:31.143Z,5.13
2022-10-18T07:02:00.523Z,5.95
2022-10-18T07:04:34.370Z,5.30
2022-10-18T07:07:03.258Z,4.90
2022-10-18T07:09:39.118Z,5.28
2022-10-18T07:12:08.444Z,5.43
2022-10-18T07:14:37.158Z,5.28
2022-10-18T07:17:10.484Z,5.20
2022-10-18T07:19:40.959Z,4.75
2022-10-18T07:23:00.386Z,5.22
2022-10-18T07:25:10.764Z,5.35
2022-10-18T07:27:42.300Z,5.53
2022-10-18T07:30:12.546Z,5.35
2022-10-18T07:32:44.277Z,4.80
2022-10-18T07:35:14.710Z,4.57
2022-10-18T07:38:13.098Z,5.43
2022-10-18T07:40:45.728Z,4.82
2022-10-18T07:43:16.150Z,4.93
2022-10-18T07:46:06.498Z,5.10
2022-10-18T07:48:36.149Z,4.35
2022-10-18T07:51:06.931Z,4.50
2022-10-18T07:53:36.030Z,4.22
2022-10-18T07:56:25.694Z,4.70
2022-10-18T07:58:58.805Z,4.68
2022-10-18T08:04:00.197Z,5.13
2022-10-18T08:06:36.130Z,4.43
2022-10-18T08:09:06.100Z,4.57
2022-10-18T08:11:37.674Z,4.60
2022-10-18T08:14:08.286Z,4.78
2022-10-18T08:16:47.878Z,4.43
2022-10-18T08:19:23.620Z,4.88
2022-10-18T08:21:54.275Z,4.18
2022-10-18T08:24:28.451Z,4.82
2022-10-18T08:26:58.949Z,5.10
2022-10-18T08:29:31.518Z,3.80
2022-10-18T08:32:01.427Z,4.90
2022-10-18T08:34:30.529Z,4.60
2022-10-18T08:37:03.218Z,4.75
2022-10-18T08:39:36.130Z,4.68
2022-10-18T08:42:33.346Z,5.07
2022-10-18T08:45:12.788Z,4.78
2022-10-18T08:47:54.031Z,4.78
2022-10-18T08:50:37.818Z,4.80
2022-10-18T08:53:18.583Z,4.75
2022-10-18T08:56:01.104Z,4.72
2022-10-18T08:58:32.553Z,5.00
2022-10-18T09:01:17.251Z,4.70
2022-10-18T09:04:07.570Z,4.88
2022-10-18T09:06:44.684Z,4.78
2022-10-18T09:09:31.046Z,5.85
2022-10-18T09:12:10.221Z,4.15
2022-10-18T09:14:55.035Z,4.55
2022-10-18T09:17:37.014Z,4.47
2022-10-18T09:20:43.687Z,4.00
2022-10-18T09:23:21.014Z,4.80
2022-10-18T09:25:56.313Z,4.40
2022-10-18T09:28:39.889Z,4.10
2022-10-18T09:31:18.406Z,4.45
2022-10-18T09:34:04.653Z,3.90
2022-10-18T09:36:37.928Z,4.50
2022-10-18T09:39:14.563Z,4.35
2022-10-18T09:41:53.458Z,4.05
2022-10-18T09:44:42.759Z,4.40
2022-10-18T09:47:45.039Z,4.00
2022-10-18T09:50:30.987Z,3.97
2022-10-18T09:53:08.108Z,4.22
2022-10-18T09:55:42.806Z,4.45
2022-10-18T09:58:16.040Z,3.63
2022-10-18T10:00:49.444Z,4.10
2022-10-18T10:03:18.484Z,4.30
2022-10-18T10:05:47.664Z,4.00
2022-10-18T10:08:16.526Z,4.07
2022-10-18T10:10:55.181Z,4.35
2022-10-18T10:13:37.448Z,4.75
2022-10-18T10:16:09.975Z,5.43
2022-10-18T10:18:55.412Z,5.53
2022-10-18T10:21:25.587Z,6.22
2022-10-18T10:23:59.859Z,6.45
2022-10-18T10:26:33.342Z,6.65
2022-10-18T10:29:48.961Z,5.70
2022-10-18T10:32:20.634Z,5.75
2022-10-18T10:34:50.470Z,5.90
2022-10-18T10:37:31.705Z,5.80
2022-10-18T10:40:18.431Z,6.13
2022-10-18T10:43:12.772Z,6.50
2022-10-18T10:46:02.873Z,6.50
2022-10-18T10:48:39.175Z,5.45
2022-10-18T10:51:11.615Z,7.82
2022-10-18T10:54:02.363Z,5.00
2022-10-18T10:56:43.697Z,6.15
2022-10-18T10:59:18.825Z,5.18
2022-10-18T11:01:51.596Z,4.90
2022-10-18T11:07:06.906Z,4.43
2022-10-18T11:09:47.668Z,4.28
2022-10-18T11:12:26.669Z,4.63
2022-10-18T11:15:10.140Z,4.60
2022-10-18T11:17:48.914Z,4.32
2022-10-18T11:20:25.187Z,4.30
2022-10-18T11:23:03.198Z,4.53
2022-10-18T11:25:51.927Z,4.43
2022-10-18T11:28:33.803Z,4.53
2022-10-18T11:31:16.076Z,4.53
2022-10-18T11:34:09.270Z,4.47
2022-10-18T11:36:57.878Z,4.60
2022-10-18T11:39:54.229Z,4.20
2022-10-18T11:42:31.375Z,4.50
2022-10-18T11:45:09.497Z,4.25
2022-10-18T11:47:55.874Z,4.28
2022-10-18T11:50:36.925Z,4.07
2022-10-18T11:53:18.252Z,4.57
2022-10-18T11:55:58.233Z,3.90
2022-10-18T11:58:41.850Z,4.13
2022-10-18T12:01:34.495Z,4.25
2022-10-18T12:04:58.546Z,4.50
2022-10-18T12:07:54.457Z,3.80
2022-10-18T12:10:37.694Z,3.88
2022-10-18T12:13:19.160Z,4.10
2022-10-18T12:15:49.012Z,3.88
2022-10-18T12:18:20.971Z,3.97
2022-10-18T12:20:52.549Z,3.70
2022-10-18T12:23:34.684Z,3.63
2022-10-18T12:26:06.075Z,3.60
2022-10-18T12:28:46.158Z,3.20
2022-10-18T12:31:23.260Z,3.30
2022-10-18T12:33:56.690Z,3.30
2022-10-18T12:37:09.843Z,3.42
2022-10-18T12:40:08.981Z,3.38
2022-10-18T12:42:46.357Z,3.17
2022-10-18T12:45:29.249Z,3.30
2022-10-18T12:48:01.275Z,3.10
2022-10-18T12:50:34.923Z,3.30
2022-10-18T12:53:17.520Z,3.10
2022-10-18T12:55:49.870Z,3.25
2022-10-18T12:58:31.481Z,2.95
2022-10-18T13:01:08.177Z,3.17
2022-10-18T13:03:53.647Z,3.08
2022-10-18T13:06:23.995Z,3.03
2022-10-18T13:09:21.029Z,2.85
2022-10-18T13:11:58.566Z,3.28
2022-10-18T13:14:48.251Z,3.33
2022-10-18T13:17:35.696Z,3.60
2022-10-18T13:20:27.293Z,3.55
2022-10-18T13:23:31.655Z,3.53
2022-10-18T13:26:11.259Z,3.45
2022-10-18T13:28:49.138Z,3.30
2022-10-18T13:31:23.416Z,3.03
2022-10-18T13:33:54.093Z,3.42
2022-10-18T13:36:25.896Z,3.47
2022-10-18T13:39:03.740Z,3.80
2022-10-18T13:41:57.389Z,3.35
2022-10-18T13:44:37.831Z,3.65
2022-10-18T13:47:12.616Z,3.60
2022-10-18T13:49:59.475Z,3.22
2022-10-18T13:52:44.073Z,3.70
2022-10-18T13:55:34.907Z,3.20
2022-10-18T13:58:13.414Z,3.30
2022-10-18T14:01:00.523Z,3.05
2022-10-18T14:04:15.526Z,3.08
2022-10-18T14:06:47.392Z,3.35
2022-10-18T14:09:26.229Z,3.30
2022-10-18T14:12:11.319Z,3.10
2022-10-18T14:14:45.260Z,3.22
2022-10-18T14:17:24.812Z,3.13
2022-10-18T14:19:59.893Z,3.40
2022-10-18T14:22:35.877Z,3.38
2022-10-18T14:25:05.531Z,3.30
2022-10-18T14:27:34.916Z,3.50
2022-10-18T14:30:15.251Z,4.00
2022-10-18T14:32:49.030Z,4.00
2022-10-18T14:35:32.095Z,3.28
2022-10-18T14:38:02.491Z,4.40
2022-10-18T14:40:35.461Z,4.07
2022-10-18T14:43:06.243Z,4.07
2022-10-18T14:45:34.969Z,5.32
2022-10-18T14:48:14.778Z,4.88
2022-10-18T14:50:44.799Z,4.28
2022-10-18T14:53:18.938Z,3.97
2022-10-18T14:55:55.029Z,4.15
2022-10-18T14:58:23.928Z,4.45
2022-10-18T15:00:52.822Z,4.43
2022-10-18T15:03:23.675Z,4.30
2022-10-18T15:05:55.125Z,4.05
2022-10-18T15:08:25.951Z,4.10
2022-10-18T15:10:54.922Z,4.45
2022-10-18T15:13:25.240Z,5.13
2022-10-18T15:15:55.246Z,4.38
2022-10-18T15:18:27.925Z,4.53
2022-10-18T15:21:22.369Z,3.95
2022-10-18T15:23:52.159Z,4.53
2022-10-18T15:26:25.271Z,4.93
2022-10-18T15:29:00.430Z,4.78
2022-10-18T15:31:36.436Z,4.85
2022-10-18T15:34:20.927Z,4.07
2022-10-18T15:36:51.304Z,5.20
2022-10-18T15:39:22.568Z,4.57
2022-10-18T15:41:53.220Z,4.47
2022-10-18T15:44:31.732Z,5.03
2022-10-18T15:47:21.145Z,4.75
2022-10-18T15:49:58.277Z,4.13
2022-10-18T15:52:37.752Z,4.63
2022-10-18T15:55:46.430Z,5.43
2022-10-18T15:58:23.706Z,5.38
2022-10-18T16:00:54.449Z,4.82
2022-10-18T16:03:24.546Z,5.10
2022-10-18T16:06:00.635Z,5.13
2022-10-18T16:08:32.200Z,5.05
2022-10-18T16:11:01.473Z,5.55
2022-10-18T16:13:30.364Z,5.22
2022-10-18T16:16:03.036Z,5.82
2022-10-18T16:18:34.911Z,6.32
2022-10-18T16:21:06.679Z,6.03
2022-10-18T16:23:36.418Z,6.30
2022-10-18T16:26:05.528Z,6.43
2022-10-18T16:28:36.594Z,6.50
2022-10-18T16:31:10.058Z,6.00
2022-10-18T16:33:39.219Z,6.70
2022-10-18T16:36:12.933Z,6.75
2022-10-18T16:38:42.057Z,8.32
2022-10-18T16:41:13.455Z,7.95
2022-10-18T16:43:46.255Z,8.68
2022-10-18T16:46:18.374Z,9.35
2022-10-18T16:48:48.301Z,7.93
2022-10-18T16:51:19.012Z,8.00
2022-10-18T16:53:48.613Z,8.48
2022-10-18T16:56:22.215Z,8.35
2022-10-18T16:58:54.523Z,8.27
2022-10-18T17:01:24.893Z,8.52
2022-10-18T17:03:54.231Z,9.05
2022-10-18T17:06:32.284Z,8.18
2022-10-18T17:09:04.373Z,6.47
2022-10-18T17:11:38.360Z,7.57
2022-10-18T17:14:08.574Z,7.40
2022-10-18T17:16:48.726Z,7.18
2022-10-18T17:19:25.682Z,7.53
2022-10-18T17:22:03.382Z,6.75
2022-10-18T17:24:38.653Z,7.57
2022-10-18T17:27:20.633Z,7.35
2022-10-18T17:30:29.292Z,7.80
2022-10-18T17:33:23.368Z,6.22
2022-10-18T17:35:56.831Z,7.13
2022-10-18T17:38:29.782Z,6.95
2022-10-18T17:40:59.504Z,7.05
2022-10-18T17:43:30.124Z,7.32
2022-10-18T17:46:10.836Z,6.97
2022-10-18T17:48:42.663Z,6.47
2022-10-18T17:51:33.840Z,6.95
2022-10-18T17:54:21.603Z,9.13
2022-10-18T17:56:54.487Z,7.53
2022-10-18T17:59:32.353Z,7.20
2022-10-18T18:02:02.107Z,6.93
2022-10-18T18:04:31.119Z,6.30
2022-10-18T18:07:00.414Z,6.20
2022-10-18T18:09:31.504Z,6.05
2022-10-18T18:12:02.567Z,6.53
2022-10-18T18:14:31.802Z,6.20
2022-10-18T18:17:09.134Z,6.38
2022-10-18T18:22:18.492Z,6.97
2022-10-18T18:24:49.986Z,7.07
2022-10-18T18:27:19.166Z,8.30
2022-10-18T18:29:48.357Z,6.63
2022-10-18T18:32:20.769Z,6.55
2022-10-18T18:34:53.202Z,6.20
2022-10-18T18:37:56.974Z,6.10
2022-10-18T18:40:27.434Z,6.57
2022-10-18T18:43:07.194Z,6.90
2022-10-18T18:45:54.175Z,6.25
2022-10-18T18:48:24.658Z,5.60
2022-10-18T18:51:01.671Z,5.95
2022-10-18T18:53:37.759Z,5.60
2022-10-18T18:56:17.023Z,5.38
2022-10-18T18:58:48.528Z,5.30
2022-10-18T19:01:44.340Z,5.95
2022-10-18T19:04:31.598Z,5.50
2022-10-18T19:07:12.807Z,4.97
2022-10-18T19:09:44.766Z,5.65
2022-10-18T19:12:28.902Z,5.35
2022-10-18T19:14:58.127Z,11.48
2022-10-18T19:17:27.814Z,6.60
2022-10-18T19:19:59.217Z,5.47
2022-10-18T19:22:29.011Z,5.30
2022-10-18T19:24:58.260Z,5.05
2022-10-18T19:27:30.122Z,6.10
2022-10-18T19:29:59.094Z,4.72
2022-10-18T19:35:05.819Z,6.18
2022-10-18T19:37:34.795Z,4.90
2022-10-18T19:40:04.730Z,6.25
2022-10-18T19:42:36.263Z,5.57
2022-10-18T19:45:06.037Z,5.53
2022-10-18T19:47:34.751Z,5.28
2022-10-18T19:50:03.889Z,8.60
2022-10-18T19:52:33.137Z,5.25
2022-10-18T19:55:02.345Z,6.25
2022-10-18T19:57:36.181Z,5.40
2022-10-18T20:00:09.887Z,5.32
2022-10-18T20:02:59.439Z,5.75
2022-10-18T20:05:30.850Z,5.32
2022-10-18T20:08:03.835Z,5.22
2022-10-18T20:10:33.125Z,5.47
2022-10-18T20:13:03.622Z,5.63
2022-10-18T20:15:55.738Z,5.00
2022-10-18T20:18:33.303Z,6.13
2022-10-18T20:21:07.018Z,4.95
2022-10-18T20:23:37.649Z,5.30
2022-10-18T20:26:18.155Z,5.03
2022-10-18T20:28:58.836Z,4.88
2022-10-18T20:31:34.109Z,4.63
2022-10-18T20:34:14.854Z,5.18
2022-10-18T20:37:00.489Z,4.68
2022-10-18T20:39:31.146Z,4.85
2022-10-18T20:42:02.323Z,4.63
2022-10-18T20:44:36.522Z,4.63
2022-10-18T20:47:05.574Z,4.50
2022-10-18T20:49:38.095Z,5.68
2022-10-18T20:52:26.109Z,4.82
2022-10-18T20:54:58.211Z,4.28
2022-10-18T20:57:38.813Z,5.07
2022-10-18T21:00:16.808Z,4.50
2022-10-18T21:02:54.792Z,4.97
2022-10-18T21:05:24.510Z,4.45
2022-10-18T21:07:56.373Z,4.80
2022-10-18T21:10:27.693Z,4.68
2022-10-18T21:12:57.198Z,5.25
2022-10-18T21:15:32.895Z,5.07
2022-10-18T21:18:05.320Z,5.20
2022-10-18T21:20:39.256Z,5.85
2022-10-18T21:23:14.287Z,5.78
2022-10-18T21:25:48.749Z,5.00
2022-10-18T21:28:19.044Z,5.22
2022-10-18T21:30:50.964Z,5.75
2022-10-18T21:33:21.959Z,5.10
2022-10-18T21:35:53.127Z,5.50
2022-10-18T21:38:30.365Z,5.32
2022-10-18T21:41:00.762Z,5.32
2022-10-18T21:43:41.442Z,5.47
2022-10-18T21:46:27.357Z,5.60
2022-10-18T21:51:29.402Z,5.80
2022-10-18T21:54:01.882Z,5.97
2022-10-18T21:56:34.353Z,4.40
2022-10-18T21:59:04.548Z,5.88
2022-10-18T22:01:38.921Z,5.78
2022-10-18T22:04:20.820Z,4.60
2022-10-18T22:06:50.513Z,5.60
2022-10-18T22:09:25.551Z,6.57
2022-10-18T22:11:55.337Z,5.85
2022-10-18T22:14:24.872Z,5.15
2022-10-18T22:16:54.954Z,5.60
2022-10-18T22:19:24.102Z,6.35
2022-10-18T22:21:53.066Z,5.80
2022-10-18T22:24:21.949Z,6.40
2022-10-18T22:26:51.216Z,6.10
2022-10-18T22:29:21.974Z,6.75
2022-10-18T22:31:52.817Z,6.18
2022-10-18T22:34:24.603Z,6.25
2022-10-18T22:36:53.350Z,6.63
2022-10-18T22:39:22.389Z,5.50
2022-10-18T22:41:55.859Z,6.10
2022-10-18T22:44:25.138Z,7.03
2022-10-18T22:46:54.030Z,5.78
2022-10-18T22:49:24.165Z,5.65
2022-10-18T22:51:52.937Z,5.95
2022-10-18T22:54:22.148Z,5.88
2022-10-18T22:56:51.401Z,6.28
2022-10-18T22:59:20.223Z,6.65
2022-10-18T23:01:49.162Z,6.18
2022-10-18T23:04:17.955Z,5.93
2022-10-18T23:06:48.225Z,5.85
2022-10-18T23:09:16.911Z,6.38
2022-10-18T23:11:47.750Z,5.25
2022-10-18T23:14:16.485Z,5.63
2022-10-18T23:16:45.661Z,5.45
2022-10-18T23:19:16.383Z,6.22
2022-10-18T23:21:45.520Z,5.65
2022-10-18T23:24:16.051Z,6.00
2022-10-18T23:26:44.882Z,5.90
2022-10-18T23:29:14.003Z,5.88
2022-10-18T23:31:45.880Z,5.10
2022-10-18T23:34:15.355Z,5.80
2022-10-18T23:39:19.864Z,5.97
2022-10-18T23:41:48.677Z,5.25
2022-10-18T23:44:17.618Z,5.57
2022-10-18T23:46:48.562Z,5.40
2022-10-18T23:49:22.536Z,5.72
2022-10-18T23:51:56.034Z,5.28
2022-10-18T23:54:52.541Z,5.88
2022-10-18T23:57:23.703Z,5.90
2022-10-18T23:59:52.824Z,5.85
